Hitchin, United Kingdom
Current Conditions -  °F | °C
As of 6:20 PM on Thursday 29 Jan 2015 (Local Time) from EGGW Reporting Station
Scattered Clouds Scattered Clouds  
Wind Chill: 24°   Ceiling: Unl
Heat Index: 34°   Visibility: 6mi
Dew Point: 30°   Wind: 15mph
Humidity: 87%   Direction: 290°WNW
Pressure: 28.82"   Gusts: NA
Location:  52.04°N, 0.27°W
Report Text: EGGW 291820Z 29013KT 9999 SCT042 01/M01 Q0976
Loading
Personal Weather Stations






























Interactive Weather Map New forecast layout! Learn more

10-Day Weather Forecast

Advertisements
Track Severe Weather on mobile